METAR Data

Data at: 2333 UTC 26 Feb 2020

METAR for:KWVL (Waterville/Lafleur A, ME, US)
Text:KWVL 262256Z AUTO 05004KT 10SM BKN070 05/M04 A3000 RMK AO2 SLP187 T00501039 PWINO
Temperature: 5.0°C ( 41°F)
Dewpoint: -3.9°C ( 25°F) [RH = 52%]
Pressure (altimeter):30.00 inches Hg (1016.0 mb) [Sea level pressure: 1018.7 mb]
Winds:from the NE (50 degrees) at 5 MPH (4 knots; 2.1 m/s)
Visibility:10 or more sm (16+ km)
Ceiling:7000 feet AGL
Clouds: broken clouds at 7000 feet AGL
QC Flag:automated observation with no human augmentation